sensor_id;sensor_type;location;lat;lon;timestamp;pressure;altitude;pressure_sealevel;temperature;humidity
50859;BME280;36826;47.514;19.056;2023-05-27T00:00:11;100397.69;;;29.99;33.48
50859;BME280;36826;47.514;19.056;2023-05-27T00:02:38;100404.31;;;30.25;32.92
50859;BME280;36826;47.514;19.056;2023-05-27T00:05:04;100400.09;;;30.18;33.02
50859;BME280;36826;47.514;19.056;2023-05-27T00:07:30;100402.72;;;29.58;34.00
50859;BME280;36826;47.514;19.056;2023-05-27T00:09:56;100393.25;;;29.98;33.35
50859;BME280;36826;47.514;19.056;2023-05-27T00:12:22;100398.28;;;28.61;35.41
50859;BME280;36826;47.514;19.056;2023-05-27T00:14:48;100395.50;;;28.73;35.44
50859;BME280;36826;47.514;19.056;2023-05-27T00:17:13;100397.28;;;29.01;35.23
50859;BME280;36826;47.514;19.056;2023-05-27T00:19:42;100390.66;;;29.42;34.61
50859;BME280;36826;47.514;19.056;2023-05-27T00:22:10;100390.78;;;29.52;34.49
50859;BME280;36826;47.514;19.056;2023-05-27T00:24:36;100395.13;;;29.70;34.00
50859;BME280;36826;47.514;19.056;2023-05-27T00:27:07;100397.09;;;29.97;33.33
50859;BME280;36826;47.514;19.056;2023-05-27T00:29:33;100387.34;;;29.89;33.51
50859;BME280;36826;47.514;19.056;2023-05-27T00:32:02;100390.28;;;30.05;33.31
50859;BME280;36826;47.514;19.056;2023-05-27T00:34:29;100390.50;;;30.25;33.22
50859;BME280;36826;47.514;19.056;2023-05-27T00:36:55;100391.03;;;30.27;33.01
50859;BME280;36826;47.514;19.056;2023-05-27T00:39:20;100390.56;;;30.36;32.98
50859;BME280;36826;47.514;19.056;2023-05-27T00:41:48;100393.47;;;30.51;32.80
50859;BME280;36826;47.514;19.056;2023-05-27T00:44:20;100394.72;;;30.66;32.49
50859;BME280;36826;47.514;19.056;2023-05-27T00:46:47;100397.56;;;30.81;32.17
50859;BME280;36826;47.514;19.056;2023-05-27T00:49:12;100395.00;;;30.37;32.91
50859;BME280;36826;47.514;19.056;2023-05-27T00:51:38;100393.19;;;29.93;33.60
50859;BME280;36826;47.514;19.056;2023-05-27T00:54:06;100402.16;;;30.33;32.96
50859;BME280;36826;47.514;19.056;2023-05-27T00:56:32;100392.38;;;30.20;33.30
50859;BME280;36826;47.514;19.056;2023-05-27T00:58:58;100394.72;;;30.06;33.26
50859;BME280;36826;47.514;19.056;2023-05-27T01:01:23;100400.44;;;29.77;34.15
50859;BME280;36826;47.514;19.056;2023-05-27T01:03:51;100397.34;;;29.46;34.57
50859;BME280;36826;47.514;19.056;2023-05-27T01:06:51;100398.91;;;29.86;34.02
50859;BME280;36826;47.514;19.056;2023-05-27T01:14:23;100395.03;;;28.64;36.21
50859;BME280;36826;47.514;19.056;2023-05-27T01:16:51;100398.50;;;27.50;38.04
50859;BME280;36826;47.514;19.056;2023-05-27T01:19:30;100387.19;;;29.29;34.69
50859;BME280;36826;47.514;19.056;2023-05-27T01:21:59;100385.94;;;28.98;35.02
50859;BME280;36826;47.514;19.056;2023-05-27T01:24:26;100389.53;;;28.47;36.22
50859;BME280;36826;47.514;19.056;2023-05-27T01:26:52;100387.94;;;29.24;34.54
50859;BME280;36826;47.514;19.056;2023-05-27T01:29:18;100381.25;;;28.98;35.27
50859;BME280;36826;47.514;19.056;2023-05-27T01:34:14;100380.00;;;29.95;33.74
50859;BME280;36826;47.514;19.056;2023-05-27T01:36:47;100380.34;;;29.54;34.28
50859;BME280;36826;47.514;19.056;2023-05-27T01:39:14;100382.75;;;29.28;34.66
50859;BME280;36826;47.514;19.056;2023-05-27T01:41:41;100375.69;;;29.82;33.85
50859;BME280;36826;47.514;19.056;2023-05-27T01:44:09;100376.16;;;29.29;34.68
50859;BME280;36826;47.514;19.056;2023-05-27T01:46:36;100380.72;;;29.41;34.10
50859;BME280;36826;47.514;19.056;2023-05-27T01:49:03;100382.75;;;28.89;35.22
50859;BME280;36826;47.514;19.056;2023-05-27T01:51:28;100383.78;;;29.22;34.52
50859;BME280;36826;47.514;19.056;2023-05-27T01:53:54;100382.94;;;28.65;35.54
50859;BME280;36826;47.514;19.056;2023-05-27T01:56:19;100384.03;;;28.98;34.80
50859;BME280;36826;47.514;19.056;2023-05-27T01:58:45;100380.00;;;28.89;35.16
50859;BME280;36826;47.514;19.056;2023-05-27T02:01:10;100381.25;;;28.98;34.88
50859;BME280;36826;47.514;19.056;2023-05-27T02:03:36;100373.25;;;28.62;35.31
50859;BME280;36826;47.514;19.056;2023-05-27T02:06:01;100376.91;;;29.24;34.54
50859;BME280;36826;47.514;19.056;2023-05-27T02:08:26;100376.66;;;29.04;34.64
50859;BME280;36826;47.514;19.056;2023-05-27T02:10:53;100377.03;;;28.73;35.50
50859;BME280;36826;47.514;19.056;2023-05-27T02:13:18;100380.78;;;27.87;36.60
50859;BME280;36826;47.514;19.056;2023-05-27T02:15:44;100375.19;;;28.79;35.38
50859;BME280;36826;47.514;19.056;2023-05-27T02:18:09;100380.19;;;28.82;34.94
50859;BME280;36826;47.514;19.056;2023-05-27T02:20:35;100374.50;;;29.50;34.01
50859;BME280;36826;47.514;19.056;2023-05-27T02:23:05;100379.94;;;29.45;34.27
50859;BME280;36826;47.514;19.056;2023-05-27T02:25:31;100385.66;;;28.99;34.98
50859;BME280;36826;47.514;19.056;2023-05-27T02:27:56;100381.84;;;28.66;35.31
50859;BME280;36826;47.514;19.056;2023-05-27T02:30:22;100377.09;;;29.18;34.44
50859;BME280;36826;47.514;19.056;2023-05-27T02:32:47;100371.81;;;28.94;34.63
50859;BME280;36826;47.514;19.056;2023-05-27T02:35:13;100368.84;;;28.44;35.71
50859;BME280;36826;47.514;19.056;2023-05-27T02:37:42;100372.50;;;28.84;34.81
50859;BME280;36826;47.514;19.056;2023-05-27T02:40:08;100379.34;;;28.47;35.16
50859;BME280;36826;47.514;19.056;2023-05-27T02:42:34;100376.03;;;28.80;34.76
50859;BME280;36826;47.514;19.056;2023-05-27T02:45:00;100381.38;;;28.86;34.96
50859;BME280;36826;47.514;19.056;2023-05-27T02:47:25;100373.84;;;29.21;34.43
50859;BME280;36826;47.514;19.056;2023-05-27T02:49:51;100380.91;;;28.72;35.36
50859;BME280;36826;47.514;19.056;2023-05-27T02:52:16;100380.84;;;28.38;35.53
50859;BME280;36826;47.514;19.056;2023-05-27T02:54:41;100381.53;;;28.45;35.43
50859;BME280;36826;47.514;19.056;2023-05-27T02:57:07;100375.13;;;28.40;35.59
50859;BME280;36826;47.514;19.056;2023-05-27T02:59:32;100378.03;;;28.84;34.78
50859;BME280;36826;47.514;19.056;2023-05-27T03:01:58;100372.69;;;27.97;36.09
50859;BME280;36826;47.514;19.056;2023-05-27T03:04:23;100376.00;;;28.11;35.86
50859;BME280;36826;47.514;19.056;2023-05-27T03:06:48;100376.53;;;28.25;35.59
50859;BME280;36826;47.514;19.056;2023-05-27T03:09:14;100380.03;;;28.55;35.17
50859;BME280;36826;47.514;19.056;2023-05-27T03:11:40;100386.06;;;27.77;36.19
50859;BME280;36826;47.514;19.056;2023-05-27T03:14:05;100393.38;;;28.29;35.59
50859;BME280;36826;47.514;19.056;2023-05-27T03:16:31;100392.31;;;28.30;35.43
50859;BME280;36826;47.514;19.056;2023-05-27T03:18:56;100389.63;;;28.69;35.03
50859;BME280;36826;47.514;19.056;2023-05-27T03:21:22;100394.41;;;28.57;35.35
50859;BME280;36826;47.514;19.056;2023-05-27T03:23:47;100388.03;;;28.90;34.52
50859;BME280;36826;47.514;19.056;2023-05-27T03:26:13;100400.47;;;27.96;35.71
50859;BME280;36826;47.514;19.056;2023-05-27T03:28:38;100393.91;;;29.83;32.99
50859;BME280;36826;47.514;19.056;2023-05-27T03:31:04;100394.81;;;30.16;32.28
50859;BME280;36826;47.514;19.056;2023-05-27T03:33:30;100400.19;;;30.28;32.18
50859;BME280;36826;47.514;19.056;2023-05-27T03:35:56;100394.56;;;30.18;31.98
50859;BME280;36826;47.514;19.056;2023-05-27T03:38:21;100397.06;;;30.52;31.23
50859;BME280;36826;47.514;19.056;2023-05-27T03:40:47;100402.84;;;30.50;31.47
50859;BME280;36826;47.514;19.056;2023-05-27T03:43:12;100397.16;;;30.62;30.99
50859;BME280;36826;47.514;19.056;2023-05-27T03:45:38;100403.78;;;29.79;32.35
50859;BME280;36826;47.514;19.056;2023-05-27T03:48:03;100396.44;;;30.12;32.11
50859;BME280;36826;47.514;19.056;2023-05-27T03:50:29;100404.59;;;29.52;32.79
50859;BME280;36826;47.514;19.056;2023-05-27T03:52:54;100399.75;;;30.79;31.13
50859;BME280;36826;47.514;19.056;2023-05-27T03:55:20;100403.31;;;30.42;31.84
50859;BME280;36826;47.514;19.056;2023-05-27T03:57:48;100395.81;;;30.32;31.54
50859;BME280;36826;47.514;19.056;2023-05-27T04:00:14;100391.94;;;30.06;31.88
50859;BME280;36826;47.514;19.056;2023-05-27T04:02:42;100399.81;;;30.52;31.40
50859;BME280;36826;47.514;19.056;2023-05-27T04:05:08;100392.94;;;30.54;31.23
50859;BME280;36826;47.514;19.056;2023-05-27T04:07:33;100397.28;;;29.41;32.90
50859;BME280;36826;47.514;19.056;2023-05-27T04:09:59;100398.13;;;30.83;31.13
50859;BME280;36826;47.514;19.056;2023-05-27T04:12:24;100400.88;;;32.00;29.45
50859;BME280;36826;47.514;19.056;2023-05-27T04:14:50;100404.69;;;31.68;29.57
50859;BME280;36826;47.514;19.056;2023-05-27T04:17:16;100401.88;;;33.49;27.38
50859;BME280;36826;47.514;19.056;2023-05-27T04:19:42;100399.75;;;34.25;26.03
50859;BME280;36826;47.514;19.056;2023-05-27T04:22:08;100400.59;;;31.96;28.57
50859;BME280;36826;47.514;19.056;2023-05-27T04:24:33;100409.84;;;32.43;28.30
50859;BME280;36826;47.514;19.056;2023-05-27T04:26:59;100408.72;;;32.70;27.45
50859;BME280;36826;47.514;19.056;2023-05-27T04:29:26;100408.59;;;34.33;26.01
50859;BME280;36826;47.514;19.056;2023-05-27T04:31:52;100410.06;;;35.62;24.12
50859;BME280;36826;47.514;19.056;2023-05-27T04:34:18;100413.34;;;33.87;26.27
50859;BME280;36826;47.514;19.056;2023-05-27T04:36:44;100411.84;;;34.45;25.58
50859;BME280;36826;47.514;19.056;2023-05-27T04:39:14;100417.50;;;36.10;23.81
50859;BME280;36826;47.514;19.056;2023-05-27T04:41:40;100415.81;;;36.94;23.32
50859;BME280;36826;47.514;19.056;2023-05-27T04:44:06;100423.50;;;37.17;22.42
50859;BME280;36826;47.514;19.056;2023-05-27T04:46:32;100419.13;;;37.10;22.53
50859;BME280;36826;47.514;19.056;2023-05-27T04:48:58;100420.16;;;37.00;22.93
50859;BME280;36826;47.514;19.056;2023-05-27T04:51:24;100428.63;;;36.10;23.46
50859;BME280;36826;47.514;19.056;2023-05-27T04:53:50;100428.44;;;34.55;25.40
50859;BME280;36826;47.514;19.056;2023-05-27T04:56:16;100421.72;;;36.07;23.48
50859;BME280;36826;47.514;19.056;2023-05-27T04:58:43;100418.47;;;37.83;21.65
50859;BME280;36826;47.514;19.056;2023-05-27T05:01:11;100417.50;;;38.25;21.34
50859;BME280;36826;47.514;19.056;2023-05-27T05:03:45;100417.91;;;35.11;24.40
50859;BME280;36826;47.514;19.056;2023-05-27T05:06:29;100418.56;;;34.39;24.81
50859;BME280;36826;47.514;19.056;2023-05-27T05:08:55;100421.50;;;34.82;24.86
50859;BME280;36826;47.514;19.056;2023-05-27T05:11:20;100426.38;;;36.64;22.83
50859;BME280;36826;47.514;19.056;2023-05-27T05:13:46;100426.97;;;37.08;21.99
50859;BME280;36826;47.514;19.056;2023-05-27T05:16:12;100434.56;;;37.36;21.67
50859;BME280;36826;47.514;19.056;2023-05-27T05:18:37;100432.84;;;36.46;22.62
50859;BME280;36826;47.514;19.056;2023-05-27T05:21:03;100438.53;;;38.90;20.71
50859;BME280;36826;47.514;19.056;2023-05-27T05:23:29;100436.94;;;38.98;20.04
50859;BME280;36826;47.514;19.056;2023-05-27T05:25:54;100440.22;;;39.00;19.85
50859;BME280;36826;47.514;19.056;2023-05-27T05:28:24;100445.97;;;40.46;18.86
50859;BME280;36826;47.514;19.056;2023-05-27T05:30:50;100444.78;;;40.03;18.84
50859;BME280;36826;47.514;19.056;2023-05-27T05:33:15;100444.34;;;40.27;18.41
50859;BME280;36826;47.514;19.056;2023-05-27T05:35:41;100441.09;;;39.50;18.66
50859;BME280;36826;47.514;19.056;2023-05-27T05:38:06;100445.00;;;35.73;22.31
50859;BME280;36826;47.514;19.056;2023-05-27T05:40:32;100446.91;;;35.05;23.02
50859;BME280;36826;47.514;19.056;2023-05-27T05:42:57;100447.81;;;36.83;21.77
50859;BME280;36826;47.514;19.056;2023-05-27T05:45:23;100447.00;;;34.25;23.59
50859;BME280;36826;47.514;19.056;2023-05-27T05:47:48;100453.34;;;35.30;23.03
50859;BME280;36826;47.514;19.056;2023-05-27T05:50:14;100456.97;;;33.81;24.27
50859;BME280;36826;47.514;19.056;2023-05-27T05:52:39;100446.91;;;33.15;25.39
50859;BME280;36826;47.514;19.056;2023-05-27T05:55:05;100455.34;;;34.65;23.52
50859;BME280;36826;47.514;19.056;2023-05-27T05:57:31;100452.25;;;35.01;23.45
50859;BME280;36826;47.514;19.056;2023-05-27T05:59:57;100462.66;;;34.56;23.53
50859;BME280;36826;47.514;19.056;2023-05-27T06:02:23;100471.69;;;33.87;24.80
50859;BME280;36826;47.514;19.056;2023-05-27T06:04:50;100473.41;;;35.51;22.73
50859;BME280;36826;47.514;19.056;2023-05-27T06:07:16;100483.28;;;32.51;25.72
50859;BME280;36826;47.514;19.056;2023-05-27T06:09:41;100476.31;;;34.52;24.09
50859;BME280;36826;47.514;19.056;2023-05-27T06:12:07;100473.81;;;35.15;22.97
50859;BME280;36826;47.514;19.056;2023-05-27T06:14:32;100480.09;;;35.26;22.73
50859;BME280;36826;47.514;19.056;2023-05-27T06:16:58;100482.41;;;36.11;22.13
50859;BME280;36826;47.514;19.056;2023-05-27T06:19:23;100481.22;;;35.25;22.83
50859;BME280;36826;47.514;19.056;2023-05-27T06:21:49;100489.34;;;36.70;21.71
50859;BME280;36826;47.514;19.056;2023-05-27T06:24:14;100488.56;;;36.84;20.95
50859;BME280;36826;47.514;19.056;2023-05-27T06:26:40;100487.91;;;38.04;19.96
50859;BME280;36826;47.514;19.056;2023-05-27T06:29:06;100491.16;;;37.69;19.79
50859;BME280;36826;47.514;19.056;2023-05-27T06:31:31;100486.19;;;39.97;18.23
50859;BME280;36826;47.514;19.056;2023-05-27T06:33:58;100489.06;;;40.32;17.69
50859;BME280;36826;47.514;19.056;2023-05-27T06:36:24;100488.88;;;40.38;17.13
50859;BME280;36826;47.514;19.056;2023-05-27T06:38:49;100480.66;;;42.47;15.29
50859;BME280;36826;47.514;19.056;2023-05-27T06:41:15;100486.50;;;42.42;15.69
50859;BME280;36826;47.514;19.056;2023-05-27T06:43:41;100493.78;;;43.73;14.51
50859;BME280;36826;47.514;19.056;2023-05-27T06:46:07;100490.72;;;43.78;14.67
50859;BME280;36826;47.514;19.056;2023-05-27T06:48:33;100489.19;;;43.56;14.68
50859;BME280;36826;47.514;19.056;2023-05-27T06:50:59;100500.28;;;42.90;14.78
50859;BME280;36826;47.514;19.056;2023-05-27T06:53:24;100495.28;;;42.74;14.90
50859;BME280;36826;47.514;19.056;2023-05-27T06:55:50;100508.81;;;42.05;15.45
50859;BME280;36826;47.514;19.056;2023-05-27T06:58:15;100513.38;;;42.31;15.29
50859;BME280;36826;47.514;19.056;2023-05-27T07:00:41;100519.25;;;42.26;15.64
50859;BME280;36826;47.514;19.056;2023-05-27T07:03:07;100514.00;;;42.58;15.28
50859;BME280;36826;47.514;19.056;2023-05-27T07:05:32;100520.19;;;42.30;15.19
50859;BME280;36826;47.514;19.056;2023-05-27T07:07:57;100517.09;;;42.99;14.76
50859;BME280;36826;47.514;19.056;2023-05-27T07:10:23;100520.84;;;41.54;16.38
50859;BME280;36826;47.514;19.056;2023-05-27T07:12:48;100518.31;;;44.38;13.90
50859;BME280;36826;47.514;19.056;2023-05-27T07:15:14;100522.63;;;46.04;13.11
50859;BME280;36826;47.514;19.056;2023-05-27T07:17:39;100509.31;;;46.05;12.90
50859;BME280;36826;47.514;19.056;2023-05-27T07:20:05;100507.81;;;45.24;13.06
50859;BME280;36826;47.514;19.056;2023-05-27T07:22:31;100505.13;;;47.00;12.51
50859;BME280;36826;47.514;19.056;2023-05-27T07:24:57;100506.53;;;46.87;12.35
50859;BME280;36826;47.514;19.056;2023-05-27T07:27:22;100501.59;;;45.86;12.46
50859;BME280;36826;47.514;19.056;2023-05-27T07:29:48;100501.88;;;46.16;12.48
50859;BME280;36826;47.514;19.056;2023-05-27T07:32:14;100505.34;;;46.29;12.30
50859;BME280;36826;47.514;19.056;2023-05-27T07:34:39;100512.97;;;45.05;13.25
50859;BME280;36826;47.514;19.056;2023-05-27T07:37:05;100503.91;;;45.64;12.56
50859;BME280;36826;47.514;19.056;2023-05-27T07:39:30;100502.84;;;47.56;11.43
50859;BME280;36826;47.514;19.056;2023-05-27T07:41:56;100510.66;;;45.75;12.46
50859;BME280;36826;47.514;19.056;2023-05-27T07:44:21;100512.03;;;42.58;14.07
50859;BME280;36826;47.514;19.056;2023-05-27T07:46:47;100499.91;;;40.78;15.61
50859;BME280;36826;47.514;19.056;2023-05-27T07:49:13;100506.91;;;42.39;14.97
50859;BME280;36826;47.514;19.056;2023-05-27T07:51:39;100503.06;;;40.50;15.45
50859;BME280;36826;47.514;19.056;2023-05-27T07:54:05;100512.00;;;41.65;14.85
50859;BME280;36826;47.514;19.056;2023-05-27T07:56:31;100500.25;;;40.15;15.90
50859;BME280;36826;47.514;19.056;2023-05-27T07:58:57;100501.16;;;44.43;13.48
50859;BME280;36826;47.514;19.056;2023-05-27T08:01:22;100487.66;;;44.81;12.77
50859;BME280;36826;47.514;19.056;2023-05-27T08:03:50;100487.69;;;44.52;13.08
50859;BME280;36826;47.514;19.056;2023-05-27T08:06:17;100488.59;;;43.13;13.38
50859;BME280;36826;47.514;19.056;2023-05-27T08:08:43;100497.59;;;39.92;16.34
50859;BME280;36826;47.514;19.056;2023-05-27T08:11:09;100484.06;;;41.30;15.66
50859;BME280;36826;47.514;19.056;2023-05-27T08:13:35;100488.63;;;43.62;13.43
50859;BME280;36826;47.514;19.056;2023-05-27T08:16:01;100481.91;;;42.16;14.13
50859;BME280;36826;47.514;19.056;2023-05-27T08:18:26;100476.59;;;41.43;14.82
50859;BME280;36826;47.514;19.056;2023-05-27T08:20:51;100482.75;;;45.58;12.09
50859;BME280;36826;47.514;19.056;2023-05-27T08:23:17;100476.44;;;44.11;12.88
50859;BME280;36826;47.514;19.056;2023-05-27T08:25:43;100472.50;;;39.96;15.90
50859;BME280;36826;47.514;19.056;2023-05-27T08:28:09;100488.03;;;41.29;15.44
50859;BME280;36826;47.514;19.056;2023-05-27T08:30:35;100487.53;;;42.16;14.60
50859;BME280;36826;47.514;19.056;2023-05-27T08:33:00;100482.66;;;47.11;11.76
50859;BME280;36826;47.514;19.056;2023-05-27T08:35:26;100479.50;;;47.67;10.94
50859;BME280;36826;47.514;19.056;2023-05-27T08:37:52;100477.41;;;48.59;10.25
50859;BME280;36826;47.514;19.056;2023-05-27T08:40:18;100475.53;;;45.96;12.23
50859;BME280;36826;47.514;19.056;2023-05-27T08:42:46;100479.97;;;45.42;12.11
50859;BME280;36826;47.514;19.056;2023-05-27T08:45:12;100475.03;;;46.92;11.58
50859;BME280;36826;47.514;19.056;2023-05-27T08:47:38;100464.59;;;45.59;12.68
50859;BME280;36826;47.514;19.056;2023-05-27T08:50:06;100476.94;;;45.34;12.60
50859;BME280;36826;47.514;19.056;2023-05-27T08:52:32;100473.34;;;41.62;14.68
50859;BME280;36826;47.514;19.056;2023-05-27T08:54:59;100480.28;;;46.70;11.68
50859;BME280;36826;47.514;19.056;2023-05-27T08:57:30;100469.75;;;49.64;10.01
50859;BME280;36826;47.514;19.056;2023-05-27T08:59:57;100474.78;;;49.29;9.81
50859;BME280;36826;47.514;19.056;2023-05-27T09:02:23;100478.09;;;50.01;9.71
50859;BME280;36826;47.514;19.056;2023-05-27T09:04:49;100474.53;;;45.53;12.13
50859;BME280;36826;47.514;19.056;2023-05-27T09:07:16;100468.56;;;47.96;10.81
50859;BME280;36826;47.514;19.056;2023-05-27T09:09:53;100471.94;;;48.43;10.38
50859;BME280;36826;47.514;19.056;2023-05-27T09:12:25;100475.97;;;47.50;10.80
50859;BME280;36826;47.514;19.056;2023-05-27T09:14:52;100469.19;;;43.98;12.85
50859;BME280;36826;47.514;19.056;2023-05-27T09:17:17;100471.47;;;45.26;11.98
50859;BME280;36826;47.514;19.056;2023-05-27T09:19:44;100468.47;;;49.54;10.15
50859;BME280;36826;47.514;19.056;2023-05-27T09:22:19;100464.06;;;47.64;10.43
50859;BME280;36826;47.514;19.056;2023-05-27T09:24:44;100470.03;;;47.86;10.90
50859;BME280;36826;47.514;19.056;2023-05-27T09:27:10;100465.41;;;41.85;14.15
50859;BME280;36826;47.514;19.056;2023-05-27T09:29:37;100462.00;;;46.05;12.00
50859;BME280;36826;47.514;19.056;2023-05-27T09:32:04;100466.72;;;48.48;10.57
50859;BME280;36826;47.514;19.056;2023-05-27T09:34:37;100467.34;;;49.69;9.65
50859;BME280;36826;47.514;19.056;2023-05-27T09:37:04;100469.84;;;46.75;11.13
50859;BME280;36826;47.514;19.056;2023-05-27T09:39:29;100467.38;;;47.70;11.05
50859;BME280;36826;47.514;19.056;2023-05-27T09:41:56;100458.50;;;49.26;10.28
50859;BME280;36826;47.514;19.056;2023-05-27T09:44:28;100460.59;;;47.51;10.48
50859;BME280;36826;47.514;19.056;2023-05-27T09:46:57;100471.06;;;42.06;14.07
50859;BME280;36826;47.514;19.056;2023-05-27T09:49:25;100459.78;;;42.27;14.07
50859;BME280;36826;47.514;19.056;2023-05-27T09:51:54;100462.97;;;42.05;13.94
50859;BME280;36826;47.514;19.056;2023-05-27T09:54:22;100453.88;;;42.75;14.03
50859;BME280;36826;47.514;19.056;2023-05-27T09:56:49;100464.53;;;41.72;14.61
50859;BME280;36826;47.514;19.056;2023-05-27T09:59:15;100454.94;;;45.60;12.19
50859;BME280;36826;47.514;19.056;2023-05-27T10:01:40;100450.78;;;47.45;10.92
50859;BME280;36826;47.514;19.056;2023-05-27T10:04:09;100448.31;;;48.69;10.37
50859;BME280;36826;47.514;19.056;2023-05-27T10:06:37;100448.03;;;48.44;10.65
50859;BME280;36826;47.514;19.056;2023-05-27T10:09:05;100443.91;;;47.73;10.26
50859;BME280;36826;47.514;19.056;2023-05-27T10:11:31;100443.34;;;49.63;9.85
50859;BME280;36826;47.514;19.056;2023-05-27T10:13:58;100442.25;;;48.33;10.60
50859;BME280;36826;47.514;19.056;2023-05-27T10:16:26;100446.88;;;48.14;10.30
50859;BME280;36826;47.514;19.056;2023-05-27T10:18:54;100441.88;;;45.91;11.68
50859;BME280;36826;47.514;19.056;2023-05-27T10:21:22;100435.28;;;44.39;12.77
50859;BME280;36826;47.514;19.056;2023-05-27T10:24:10;100439.22;;;42.36;14.03
50859;BME280;36826;47.514;19.056;2023-05-27T10:26:45;100429.66;;;43.57;13.39
50859;BME280;36826;47.514;19.056;2023-05-27T10:29:12;100427.75;;;42.20;14.05
50859;BME280;36826;47.514;19.056;2023-05-27T10:31:49;100432.94;;;42.97;13.79
50859;BME280;36826;47.514;19.056;2023-05-27T10:34:15;100431.91;;;42.68;14.29
50859;BME280;36826;47.514;19.056;2023-05-27T10:36:40;100432.94;;;43.10;13.75
50859;BME280;36826;47.514;19.056;2023-05-27T10:39:13;100435.50;;;41.80;14.79
50859;BME280;36826;47.514;19.056;2023-05-27T10:41:43;100429.06;;;41.80;14.78
50859;BME280;36826;47.514;19.056;2023-05-27T10:44:10;100432.84;;;39.53;16.49
50859;BME280;36826;47.514;19.056;2023-05-27T10:46:43;100429.78;;;41.98;14.82
50859;BME280;36826;47.514;19.056;2023-05-27T10:49:12;100433.22;;;41.22;15.47
50859;BME280;36826;47.514;19.056;2023-05-27T10:51:38;100430.69;;;39.01;16.86
50859;BME280;36826;47.514;19.056;2023-05-27T10:54:05;100429.03;;;39.40;16.40
50859;BME280;36826;47.514;19.056;2023-05-27T10:56:32;100425.41;;;41.28;15.06
50859;BME280;36826;47.514;19.056;2023-05-27T10:59:00;100424.50;;;41.06;15.53
50859;BME280;36826;47.514;19.056;2023-05-27T11:01:28;100412.44;;;38.49;17.40
50859;BME280;36826;47.514;19.056;2023-05-27T11:03:57;100428.22;;;40.80;15.59
50859;BME280;36826;47.514;19.056;2023-05-27T11:06:23;100424.31;;;40.73;15.79
50859;BME280;36826;47.514;19.056;2023-05-27T11:08:49;100421.34;;;39.15;16.79
50859;BME280;36826;47.514;19.056;2023-05-27T11:11:15;100423.13;;;36.90;18.93
50859;BME280;36826;47.514;19.056;2023-05-27T11:13:44;100421.34;;;38.51;17.69
50859;BME280;36826;47.514;19.056;2023-05-27T11:16:11;100425.84;;;40.26;16.33
50859;BME280;36826;47.514;19.056;2023-05-27T11:18:42;100422.34;;;41.72;14.97
50859;BME280;36826;47.514;19.056;2023-05-27T11:21:09;100417.84;;;42.01;14.70
50859;BME280;36826;47.514;19.056;2023-05-27T11:23:39;100415.47;;;41.31;15.05
50859;BME280;36826;47.514;19.056;2023-05-27T11:26:22;100414.56;;;38.75;17.26
50859;BME280;36826;47.514;19.056;2023-05-27T11:28:53;100420.22;;;40.44;15.77
50859;BME280;36826;47.514;19.056;2023-05-27T11:31:21;100412.16;;;40.33;15.91
50859;BME280;36826;47.514;19.056;2023-05-27T11:33:49;100414.38;;;38.03;17.70
50859;BME280;36826;47.514;19.056;2023-05-27T11:36:16;100415.72;;;37.55;18.43
50859;BME280;36826;47.514;19.056;2023-05-27T11:38:46;100414.91;;;39.14;16.95
50859;BME280;36826;47.514;19.056;2023-05-27T11:41:12;100413.91;;;39.50;16.60
50859;BME280;36826;47.514;19.056;2023-05-27T11:46:17;100402.25;;;39.17;16.87
50859;BME280;36826;47.514;19.056;2023-05-27T11:48:44;100402.66;;;38.38;17.33
50859;BME280;36826;47.514;19.056;2023-05-27T11:51:11;100408.84;;;40.97;15.16
50859;BME280;36826;47.514;19.056;2023-05-27T11:53:44;100401.84;;;39.50;16.41
50859;BME280;36826;47.514;19.056;2023-05-27T11:56:09;100407.50;;;40.38;15.70
50859;BME280;36826;47.514;19.056;2023-05-27T11:58:35;100400.44;;;40.14;15.54
50859;BME280;36826;47.514;19.056;2023-05-27T12:01:03;100396.94;;;40.34;15.95
50859;BME280;36826;47.514;19.056;2023-05-27T12:03:29;100401.66;;;40.60;15.50
50859;BME280;36826;47.514;19.056;2023-05-27T12:05:54;100396.94;;;39.64;16.35
50859;BME280;36826;47.514;19.056;2023-05-27T12:08:20;100391.94;;;38.63;16.75
50859;BME280;36826;47.514;19.056;2023-05-27T12:10:45;100388.25;;;39.83;16.54
50859;BME280;36826;47.514;19.056;2023-05-27T12:13:15;100387.41;;;39.83;15.95
50859;BME280;36826;47.514;19.056;2023-05-27T12:15:41;100384.09;;;38.74;17.06
50859;BME280;36826;47.514;19.056;2023-05-27T12:18:07;100394.59;;;39.00;16.63
50859;BME280;36826;47.514;19.056;2023-05-27T12:20:32;100384.75;;;39.02;16.98
50859;BME280;36826;47.514;19.056;2023-05-27T12:22:58;100386.03;;;39.54;16.41
50859;BME280;36826;47.514;19.056;2023-05-27T12:25:24;100377.28;;;38.12;17.34
50859;BME280;36826;47.514;19.056;2023-05-27T12:27:49;100388.09;;;37.40;17.88
50859;BME280;36826;47.514;19.056;2023-05-27T12:30:15;100385.78;;;36.86;18.92
50859;BME280;36826;47.514;19.056;2023-05-27T12:32:40;100380.66;;;38.00;17.68
50859;BME280;36826;47.514;19.056;2023-05-27T12:35:07;100376.56;;;38.06;17.76
50859;BME280;36826;47.514;19.056;2023-05-27T12:37:33;100369.75;;;39.73;16.85
50859;BME280;36826;47.514;19.056;2023-05-27T12:39:58;100368.88;;;38.89;16.91
50859;BME280;36826;47.514;19.056;2023-05-27T12:42:25;100366.41;;;39.36;17.06
50859;BME280;36826;47.514;19.056;2023-05-27T12:44:51;100369.75;;;40.00;16.61
50859;BME280;36826;47.514;19.056;2023-05-27T12:47:17;100364.81;;;38.72;17.61